Terminal Aerodrome Forecast
Issued by NWS

Home | Current Version | Previous Version | Text Only | Print | Product List | Glossary On
Versions: 1 2 3 4 5 6 7 8 9 10 11 12 13 14 15 16 17 18 19 20 21 22 23 24 25 26 27 28 29 30 31 32 33 34 35
000
FTUS46 KLOX 271720
TAFLAX
TAF
KLAX 271720Z 2718/2824 25007KT P6SM FEW008 FEW014 SCT200
     FM272100 26013KT P6SM SCT150
     FM280400 26008KT P6SM SKC
     FM280900 VRB03KT P6SM BKN006
     FM281200 13004KT 4SM BR OVC005
     FM281600 23005KT 6SM BR SCT008
     FM281900 26009KT P6SM FEW010 SCT180=

USA.gov is the U.S. government's official web portal to all federal, state and local government web resources and services.